Time;durP1;ratioP1;P1;durP2;ratioP2;P2;SDS_P1;SDS_P2;PMS_P1;PMS_P2;Temp;Humidity;BMP_temperature;BMP_pressure;BME280_temperature;BME280_humidity;BME280_pressure;Samples;Min_cycle;Max_cycle;Signal;HPM_P1;HPM_P2
2022/09/04 00:01:11;;;;;;;3.22;2.50;;;;;;;16.71;58.45;98839.84;5063675;28;20031;-81
2022/09/04 00:03:52;;;;;;;2.42;2.13;;;;;;;16.56;58.29;98826.53;5064864;28;20067;-81
2022/09/04 00:06:28;;;;;;;6.05;2.13;;;;;;;16.73;58.34;98846.53;5064982;28;20088;-81
2022/09/04 00:09:20;;;;;;;4.93;2.25;;;;;;;16.76;58.20;98848.66;5045303;28;20111;-81
2022/09/04 00:12:03;;;;;;;2.75;2.30;;;;;;;16.66;58.39;98839.91;5065164;28;20381;-81
2022/09/04 00:14:39;;;;;;;3.95;2.10;;;;;;;16.77;58.04;98860.25;5067826;28;20757;-81
2022/09/04 00:17:33;;;;;;;3.45;2.40;;;;;;;16.73;58.31;98853.84;5066072;28;20108;-81
2022/09/04 00:20:12;;;;;;;6.78;2.22;;;;;;;16.70;58.09;98849.81;5038955;28;20028;-82
2022/09/04 00:22:44;;;;;;;2.28;1.88;;;;;;;16.61;58.61;98839.94;5064134;28;20852;-81
2022/09/04 00:25:14;;;;;;;3.10;1.95;;;;;;;16.63;59.17;98860.13;5065236;28;20040;-81
2022/09/04 00:27:46;;;;;;;3.38;2.42;;;;;;;16.75;58.51;98859.75;5063438;28;20124;-81
2022/09/04 00:30:19;;;;;;;2.67;2.42;;;;;;;16.63;59.07;98864.72;5065052;28;20194;-82
2022/09/04 00:32:53;;;;;;;4.45;2.10;;;;;;;16.64;59.19;98859.06;5049596;28;20488;-82
2022/09/04 00:35:36;;;;;;;2.92;2.72;;;;;;;16.53;58.59;98852.19;5064680;28;20083;-81
2022/09/04 00:38:08;;;;;;;2.53;2.30;;;;;;;16.60;59.02;98868.78;5060263;28;20033;-82
2022/09/04 00:40:37;;;;;;;3.75;2.33;;;;;;;16.57;59.38;98868.56;5064663;28;20077;-81
2022/09/04 00:43:20;;;;;;;3.92;2.28;;;;;;;16.53;59.39;98875.63;5062943;28;20024;-82
2022/09/04 00:46:20;;;;;;;3.20;2.58;;;;;;;16.45;59.45;98872.44;5057289;28;20032;-81
2022/09/04 00:48:57;;;;;;;2.80;2.10;;;;;;;16.47;59.50;98869.44;5061255;28;20103;-81
2022/09/04 00:51:42;;;;;;;3.55;2.47;;;;;;;16.45;59.36;98875.13;5064893;28;20028;-81
2022/09/04 00:54:32;;;;;;;2.47;2.28;;;;;;;16.41;59.85;98874.09;5063917;28;20513;-81
2022/09/04 00:57:19;;;;;;;5.80;2.38;;;;;;;16.41;59.32;98876.78;5064710;28;20024;-81
2022/09/04 01:00:11;;;;;;;4.93;2.10;;;;;;;16.37;59.86;98881.13;5061345;28;20093;-81
2022/09/04 01:02:43;;;;;;;5.20;3.67;;;;;;;16.38;59.50;98890.81;5063834;28;20055;-81
2022/09/04 01:05:28;;;;;;;5.90;2.47;;;;;;;16.38;59.57;98880.03;5067968;28;20032;-81
2022/09/04 01:08:38;;;;;;;3.28;2.42;;;;;;;16.35;59.99;98895.97;5066086;28;20048;-81
2022/09/04 01:11:28;;;;;;;4.13;2.33;;;;;;;16.32;59.54;98901.91;5050829;28;20033;-81
2022/09/04 01:14:32;;;;;;;5.57;2.88;;;;;;;16.19;59.92;98900.69;5062659;28;20031;-81
2022/09/04 01:17:16;;;;;;;2.38;2.17;;;;;;;16.17;60.22;98902.88;5058076;28;20032;-81
2022/09/04 01:19:48;;;;;;;4.18;2.60;;;;;;;16.15;59.97;98901.53;5063104;28;20491;-81
2022/09/04 01:22:23;;;;;;;3.55;2.20;;;;;;;16.19;59.74;98894.50;5065346;28;20020;-81
2022/09/04 01:24:54;;;;;;;5.35;2.58;;;;;;;16.17;60.06;98905.56;5065768;28;20476;-81
2022/09/04 01:27:56;;;;;;;3.08;2.17;;;;;;;16.13;60.61;98891.06;5058259;28;20090;-81
2022/09/04 01:30:21;;;;;;;2.88;2.67;;;;;;;16.17;59.97;98897.50;5062925;28;20502;-81
2022/09/04 01:33:09;;;;;;;2.70;2.38;;;;;;;16.17;60.03;98904.75;5068447;28;20032;-81
2022/09/04 01:35:54;;;;;;;5.68;3.38;;;;;;;16.08;60.12;98896.50;5065803;28;21991;-81
2022/09/04 01:38:44;;;;;;;2.50;2.30;;;;;;;16.19;59.96;98905.28;5061910;28;20028;-81
2022/09/04 01:41:27;;;;;;;2.72;2.30;;;;;;;15.98;59.87;98885.81;5065741;28;20032;-81
2022/09/04 01:43:53;;;;;;;2.38;2.17;;;;;;;15.88;60.03;98874.34;5061344;28;20031;-81
2022/09/04 01:46:46;;;;;;;4.00;2.70;;;;;;;16.02;60.39;98903.00;5044029;28;20036;-81
2022/09/04 01:49:37;;;;;;;2.97;2.65;;;;;;;16.00;60.25;98913.25;5058469;28;20040;-81
2022/09/04 01:52:09;;;;;;;3.25;2.35;;;;;;;15.99;59.90;98911.63;5062021;28;20025;-81
2022/09/04 01:54:52;;;;;;;5.95;2.90;;;;;;;15.99;60.21;98913.56;5063895;28;20482;-81
2022/09/04 01:57:33;;;;;;;3.63;2.75;;;;;;;15.82;60.87;98900.47;5056398;28;20028;-81
2022/09/04 02:00:12;;;;;;;2.63;2.25;;;;;;;15.75;60.53;98898.09;5068332;28;20040;-81
2022/09/04 02:02:53;;;;;;;2.88;2.55;;;;;;;15.83;60.59;98912.84;5063585;28;20025;-81
2022/09/04 02:05:55;;;;;;;2.50;2.30;;;;;;;15.84;60.89;98927.09;5069759;28;20024;-81
2022/09/04 02:08:53;;;;;;;2.20;2.10;;;;;;;15.81;60.55;98920.41;5062844;28;20017;-81
2022/09/04 02:11:22;;;;;;;2.83;2.28;;;;;;;15.67;60.70;98903.28;5061702;28;20035;-81
2022/09/04 02:14:13;;;;;;;3.17;2.72;;;;;;;15.73;60.67;98926.38;5052041;28;20454;-81
2022/09/04 02:16:42;;;;;;;3.58;3.28;;;;;;;15.69;61.14;98918.06;5060696;28;20029;-81
2022/09/04 02:19:20;;;;;;;6.05;2.72;;;;;;;15.64;61.37;98914.59;5056649;28;20024;-81
2022/09/04 02:22:00;;;;;;;2.92;2.58;;;;;;;15.56;60.90;98912.50;5064904;28;20056;-81
2022/09/04 02:24:41;;;;;;;3.08;2.63;;;;;;;15.59;61.19;98920.03;5070497;28;20024;-81
2022/09/04 02:27:13;;;;;;;4.28;2.70;;;;;;;15.36;61.49;98896.44;5055564;28;20028;-81
2022/09/04 02:29:57;;;;;;;2.80;2.47;;;;;;;15.54;61.57;98920.03;5064346;28;20024;-81
2022/09/04 02:32:31;;;;;;;3.45;3.10;;;;;;;15.57;61.52;98911.44;5065610;28;20362;-81
2022/09/04 02:35:08;;;;;;;2.88;2.50;;;;;;;15.59;61.51;98912.75;5060564;28;20032;-81
2022/09/04 02:38:09;;;;;;;3.30;3.00;;;;;;;15.58;61.77;98913.03;5058046;28;20029;-81
2022/09/04 02:40:41;;;;;;;4.32;2.92;;;;;;;15.59;61.63;98912.75;5074499;28;20029;-81
2022/09/04 02:43:18;;;;;;;3.40;2.75;;;;;;;15.55;61.75;98914.38;5067154;28;20537;-81
2022/09/04 02:45:55;;;;;;;5.50;2.60;;;;;;;15.37;61.82;98896.19;5062993;28;20027;-81
2022/09/04 02:48:40;;;;;;;3.40;2.78;;;;;;;15.46;61.85;98888.38;5062842;28;20103;-81
2022/09/04 02:51:37;;;;;;;4.00;3.25;;;;;;;15.54;61.82;98903.91;5062364;28;20492;-81
2022/09/04 02:54:51;;;;;;;3.90;2.85;;;;;;;15.51;61.72;98907.94;5057415;28;20357;-81
2022/09/04 02:57:26;;;;;;;2.67;2.47;;;;;;;15.46;62.04;98908.00;5054317;28;20029;-81
2022/09/04 03:00:16;;;;;;;4.50;3.10;;;;;;;15.36;62.13;98907.19;5061026;28;20057;-81
2022/09/04 03:02:51;;;;;;;2.50;2.30;;;;;;;15.40;61.96;98905.56;5065330;28;20039;-81
2022/09/04 03:05:24;;;;;;;3.03;2.40;;;;;;;15.25;62.28;98894.88;5065330;28;20385;-81
2022/09/04 03:08:03;;;;;;;3.13;2.80;;;;;;;15.30;62.49;98911.81;5055567;28;20374;-81
2022/09/04 03:10:38;;;;;;;3.50;2.78;;;;;;;15.30;61.96;98898.38;5062006;28;20042;-81
2022/09/04 03:13:19;;;;;;;4.28;2.80;;;;;;;15.24;62.14;98895.97;5065854;28;20062;-81
2022/09/04 03:15:53;;;;;;;5.15;2.75;;;;;;;15.24;62.20;98906.75;5059607;28;20032;-81
2022/09/04 03:18:22;;;;;;;5.13;2.75;;;;;;;15.36;61.96;98921.47;5061940;28;20020;-81
2022/09/04 03:21:06;;;;;;;3.20;2.90;;;;;;;15.29;62.16;98917.47;5064551;28;20035;-81
2022/09/04 03:23:38;;;;;;;7.75;3.38;;;;;;;15.24;62.25;98925.56;5066246;28;20025;-81
2022/09/04 03:26:03;;;;;;;4.30;2.70;;;;;;;15.25;62.61;98932.53;5060271;28;20029;-81
2022/09/04 03:28:29;;;;;;;2.83;2.63;;;;;;;15.16;62.56;98926.16;5062523;28;20502;-81
2022/09/04 03:30:57;;;;;;;4.97;2.55;;;;;;;15.08;62.80;98934.75;5053316;28;20027;-81
2022/09/04 03:33:43;;;;;;;3.13;2.67;;;;;;;14.96;63.12;98913.59;5067874;28;20066;-81
2022/09/04 03:36:20;;;;;;;3.67;2.80;;;;;;;15.06;62.64;98926.19;5061337;28;20027;-81
2022/09/04 03:39:10;;;;;;;5.22;2.72;;;;;;;14.99;62.76;98927.28;5064640;28;21208;-81
2022/09/04 03:42:03;;;;;;;3.35;3.05;;;;;;;15.03;62.77;98933.72;5066425;28;20661;-81
2022/09/04 03:45:11;;;;;;;5.53;2.88;;;;;;;15.09;62.78;98941.78;5081108;28;20029;-81
2022/09/04 03:47:41;;;;;;;;;;;;;;;14.99;62.88;98940.72;5061781;28;20037;-81
2022/09/04 03:50:29;;;;;;;3.38;2.53;;;;;;;14.98;62.63;98936.41;5072841;28;20374;-81
2022/09/04 03:53:04;;;;;;;4.80;3.28;;;;;;;14.98;62.89;98947.16;5072057;28;20028;-81
2022/09/04 03:56:11;;;;;;;4.82;2.78;;;;;;;15.08;62.65;98951.72;5076751;28;20426;-81
2022/09/04 03:59:05;;;;;;;6.63;2.92;;;;;;;14.95;63.11;98953.09;5061531;28;20032;-81
2022/09/04 04:01:46;;;;;;;4.28;3.00;;;;;;;14.93;63.27;98952.56;5050876;28;20036;-80
2022/09/04 04:04:14;;;;;;;5.85;2.90;;;;;;;14.99;63.10;98959.53;5064417;28;20365;-80
2022/09/04 04:06:55;;;;;;;5.15;2.90;;;;;;;14.81;63.39;98957.44;5063790;28;20521;-81
2022/09/04 04:09:41;;;;;;;3.47;3.13;;;;;;;14.63;64.14;98971.47;5063276;28;20031;-81
2022/09/04 04:12:38;;;;;;;6.47;3.17;;;;;;;14.78;63.38;98957.19;5068907;28;20035;-81
2022/09/04 04:15:34;;;;;;;6.13;3.00;;;;;;;14.85;62.96;98961.19;5065373;28;20024;-81
2022/09/04 04:18:03;;;;;;;3.35;2.95;;;;;;;14.84;63.30;98964.97;5068002;28;20024;-81
2022/09/04 04:20:49;;;;;;;3.05;2.75;;;;;;;14.82;63.19;98972.50;5070435;28;20082;-81
2022/09/04 04:23:55;;;;;;;9.15;3.22;;;;;;;14.88;63.02;98968.72;5073765;28;20036;-81
2022/09/04 04:26:20;;;;;;;3.60;2.88;;;;;;;14.83;63.29;98966.03;5062749;28;20032;-80
2022/09/04 04:28:58;;;;;;;6.03;3.35;;;;;;;14.86;62.93;98970.88;5069391;28;20052;-81
2022/09/04 04:32:10;;;;;;;4.13;3.55;;;;;;;14.82;63.08;98977.88;5066534;28;20024;-80
2022/09/04 04:35:03;;;;;;;4.38;3.00;;;;;;;14.79;63.14;98986.47;5063208;28;20699;-80
2022/09/04 04:37:50;;;;;;;6.07;3.40;;;;;;;14.71;63.59;98983.53;5058108;28;20028;-81
2022/09/04 04:40:21;;;;;;;5.00;3.42;;;;;;;14.68;64.14;98990.25;5071816;28;20150;-81
2022/09/04 04:43:00;;;;;;;7.88;3.63;;;;;;;14.70;63.94;98995.38;5064806;28;20029;-80
2022/09/04 04:45:50;;;;;;;5.97;3.80;;;;;;;14.66;63.94;98997.78;5063415;28;20052;-80
2022/09/04 04:48:28;;;;;;;4.20;3.17;;;;;;;14.75;63.85;98992.66;5061550;28;20032;-81
2022/09/04 04:51:41;;;;;;;4.05;3.50;;;;;;;14.72;64.03;98985.94;5055143;28;20040;-81
2022/09/04 04:54:27;;;;;;;9.07;3.60;;;;;;;14.79;64.13;98996.41;4990497;28;20042;-81
2022/09/04 04:56:58;;;;;;;;;;;;;;;14.90;63.57;99003.38;4992496;28;20026;-81
2022/09/04 05:00:02;;;;;;;5.80;3.97;;;;;;;14.74;63.87;98972.25;5040887;28;19917;-81
2022/09/04 05:02:33;;;;;;;3.15;2.95;;;;;;;14.94;64.28;99007.94;5064361;28;20036;-81
2022/09/04 05:05:03;;;;;;;7.03;3.40;;;;;;;14.84;63.22;98994.53;5068458;28;20405;-81
2022/09/04 05:07:41;;;;;;;4.45;3.55;;;;;;;15.11;63.38;98998.75;5064074;28;20029;-81
2022/09/04 05:10:25;;;;;;;4.93;3.67;;;;;;;15.13;63.52;99000.09;5065156;28;20029;-81
2022/09/04 05:13:00;;;;;;;4.50;3.42;;;;;;;15.20;62.80;98997.91;5044659;28;20040;-81
2022/09/04 05:15:33;;;;;;;3.58;3.17;;;;;;;15.38;62.85;99015.31;5065827;28;20029;-81
2022/09/04 05:18:15;;;;;;;3.72;3.30;;;;;;;15.12;63.27;99001.16;5070935;28;20525;-81
2022/09/04 05:20:40;;;;;;;3.53;3.22;;;;;;;15.25;62.99;99026.66;5065817;28;20036;-81
2022/09/04 05:23:51;;;;;;;4.90;3.55;;;;;;;15.40;63.11;99010.47;5063504;28;20032;-81
2022/09/04 05:26:31;;;;;;;3.67;3.00;;;;;;;15.33;63.41;99031.50;4979939;28;20034;-81
2022/09/04 05:29:20;;;;;;;4.65;3.28;;;;;;;15.30;62.97;99003.25;5061810;28;20040;-81
2022/09/04 05:32:12;;;;;;;7.00;3.50;;;;;;;15.35;62.79;99015.88;5071502;28;20032;-81
2022/09/04 05:34:50;;;;;;;4.30;3.72;;;;;;;15.53;63.01;99040.31;5066513;28;20468;-81
2022/09/04 05:37:19;;;;;;;4.97;3.08;;;;;;;15.55;63.05;99043.53;5059316;28;20111;-81
2022/09/04 05:40:03;;;;;;;3.17;2.88;;;;;;;15.62;62.87;99054.78;5064774;28;20377;-81
2022/09/04 05:42:56;;;;;;;4.88;3.45;;;;;;;15.68;62.75;99052.91;5063220;28;20055;-81
2022/09/04 05:45:46;;;;;;;5.25;3.15;;;;;;;15.66;63.32;99053.16;5060070;28;20037;-81
2022/09/04 05:48:18;;;;;;;3.83;3.40;;;;;;;15.69;63.52;99060.69;5066221;28;20036;-81
2022/09/04 05:51:17;;;;;;;3.28;3.05;;;;;;;15.67;63.14;99062.03;5078161;28;20028;-81
2022/09/04 05:54:05;;;;;;;5.32;3.85;;;;;;;15.41;64.75;99057.81;5012798;28;20120;-81
2022/09/04 05:56:37;;;;;;;4.55;3.50;;;;;;;15.68;63.54;99061.75;5069661;28;20466;-82
2022/09/04 05:59:14;;;;;;;4.97;3.65;;;;;;;15.66;63.65;99041.63;5079672;28;21758;-81
2022/09/04 06:01:58;;;;;;;4.00;3.30;;;;;;;15.94;63.17;99073.22;5065908;28;21602;-81
2022/09/04 06:04:52;;;;;;;5.03;3.15;;;;;;;15.86;62.73;99051.47;5058349;28;20021;-81
2022/09/04 06:07:35;;;;;;;7.28;3.63;;;;;;;15.97;62.50;99058.38;5063835;28;20060;-82
2022/09/04 06:10:23;;;;;;;3.67;3.38;;;;;;;16.01;62.52;99052.16;5060875;28;20021;-82
2022/09/04 06:13:42;;;;;;;6.80;3.40;;;;;;;15.99;62.70;99046.25;5064635;28;20028;-81
2022/09/04 06:16:13;;;;;;;4.70;3.42;;;;;;;15.69;64.73;99071.47;5060957;28;20040;-82
2022/09/04 06:19:08;;;;;;;4.63;4.22;;;;;;;15.93;63.52;99077.00;5064500;28;20427;-82
2022/09/04 06:21:50;;;;;;;4.35;3.97;;;;;;;16.00;62.98;99074.00;5052606;28;20037;-82
2022/09/04 06:24:28;;;;;;;3.38;2.88;;;;;;;16.10;63.02;99082.00;5062356;28;20358;-82
2022/09/04 06:27:02;;;;;;;3.90;3.17;;;;;;;16.41;62.15;99088.81;5064849;28;20093;-82
2022/09/04 06:29:48;;;;;;;4.10;3.50;;;;;;;16.07;62.19;99051.06;5065877;28;20052;-81
2022/09/04 06:32:44;;;;;;;4.68;3.38;;;;;;;16.31;62.79;99089.69;5069420;28;20048;-81
2022/09/04 06:35:30;;;;;;;7.03;3.30;;;;;;;16.06;63.54;99097.09;5066061;28;20032;-81
2022/09/04 06:38:02;;;;;;;4.70;4.20;;;;;;;16.21;64.71;99089.75;5063187;28;20041;-80
2022/09/04 06:41:02;;;;;;;5.03;4.10;;;;;;;15.51;66.15;99084.69;5062690;28;20027;-80
2022/09/04 06:43:30;;;;;;;6.28;4.10;;;;;;;15.14;67.23;99092.28;5070039;28;20033;-80
2022/09/04 06:46:14;;;;;;;7.57;3.67;;;;;;;15.15;68.00;99096.59;5066775;28;20028;-80
2022/09/04 06:49:01;;;;;;;5.93;4.07;;;;;;;14.90;69.05;99089.38;5058194;28;20028;-80
2022/09/04 06:52:06;;;;;;;8.90;4.75;;;;;;;14.79;69.46;99093.94;5065889;28;20656;-80
2022/09/04 06:55:08;;;;;;;7.25;4.43;;;;;;;14.85;68.94;99098.25;5056838;28;20116;-80
2022/09/04 06:57:52;;;;;;;6.30;3.78;;;;;;;15.34;67.45;99105.69;5063814;28;20109;-80
2022/09/04 07:00:19;;;;;;;8.18;4.60;;;;;;;14.95;68.92;99113.56;5050505;28;20025;-80
2022/09/04 07:03:13;;;;;;;9.85;4.13;;;;;;;15.77;65.46;99111.25;5054539;28;20093;-80
2022/09/04 07:05:53;;;;;;;10.02;4.57;;;;;;;15.55;67.12;99120.75;5058546;28;20025;-80
2022/09/04 07:08:37;;;;;;;8.10;5.82;;;;;;;15.25;68.13;99118.91;5059401;28;20121;-80
2022/09/04 07:11:21;;;;;;;5.40;4.10;;;;;;;15.58;66.21;99117.50;5061905;28;20024;-81
2022/09/04 07:14:15;;;;;;;8.20;4.75;;;;;;;15.65;67.60;99126.91;5069489;28;20492;-81
2022/09/04 07:16:59;;;;;;;8.40;5.40;;;;;;;15.20;68.42;99104.66;5065721;28;20031;-80
2022/09/04 07:19:56;;;;;;;10.77;5.00;;;;;;;15.34;69.01;99124.53;5065093;28;20070;-80
2022/09/04 07:22:45;;;;;;;;;;;;;;;15.21;68.67;99122.41;5059442;28;20492;-80
2022/09/04 07:25:25;;;;;;;6.00;4.60;;;;;;;15.34;68.25;99132.59;5049151;28;19978;-80
2022/09/04 07:28:28;;;;;;;7.50;4.95;;;;;;;15.43;68.51;99130.97;5061366;28;20552;-80
2022/09/04 07:31:02;;;;;;;4.85;3.72;;;;;;;16.07;65.28;99129.16;5061079;28;20025;-80
2022/09/04 07:33:40;;;;;;;5.00;3.67;;;;;;;16.35;63.48;99098.84;5063882;28;20032;-80
2022/09/04 07:36:33;;;;;;;9.77;3.22;;;;;;;16.56;63.11;99123.75;5055835;28;20016;-81
2022/09/04 07:39:14;;;;;;;4.78;3.63;;;;;;;15.94;66.98;99116.31;5062618;28;20085;-80
2022/09/04 07:41:54;;;;;;;8.18;3.80;;;;;;;16.40;65.71;99139.19;5057426;28;20055;-79
2022/09/04 07:44:43;;;;;;;6.63;4.25;;;;;;;16.33;66.58;99135.22;5061757;28;20537;-79
2022/09/04 07:47:33;;;;;;;8.98;4.57;;;;;;;15.87;67.54;99117.66;5027056;28;20033;-80
2022/09/04 07:50:17;;;;;;;4.70;3.67;;;;;;;15.86;68.34;99124.16;5067852;28;20025;-80
2022/09/04 07:52:45;;;;;;;3.03;2.72;;;;;;;16.26;66.04;99140.91;5060094;28;20037;-80
2022/09/04 07:55:12;;;;;;;10.27;4.68;;;;;;;16.45;67.70;99135.66;5063777;28;20031;-80
2022/09/04 07:58:01;;;;;;;7.38;4.22;;;;;;;15.99;67.97;99113.56;5060401;28;20024;-80
2022/09/04 08:00:34;;;;;;;4.15;3.75;;;;;;;16.06;68.18;99124.03;5078622;28;20037;-80
2022/09/04 08:03:35;;;;;;;5.95;4.28;;;;;;;16.09;68.39;99137.78;5056990;28;20163;-80
2022/09/04 08:06:15;;;;;;;5.70;4.45;;;;;;;16.39;68.18;99142.97;5020969;28;20092;-79
2022/09/04 08:09:08;;;;;;;3.42;3.13;;;;;;;16.80;65.11;99140.03;5061578;28;20074;-80
2022/09/04 08:12:04;;;;;;;4.10;3.70;;;;;;;16.68;68.51;99123.41;5074388;28;20032;-80
2022/09/04 08:14:32;;;;;;;7.47;3.30;;;;;;;16.61;66.85;99149.88;5071303;28;20108;-80
2022/09/04 08:17:05;;;;;;;3.58;3.17;;;;;;;17.18;64.23;99147.28;5068397;28;20021;-80
2022/09/04 08:19:39;;;;;;;6.50;3.75;;;;;;;16.96;68.46;99155.00;5065051;28;20063;-80
2022/09/04 08:22:07;;;;;;;4.05;3.67;;;;;;;17.02;66.74;99137.69;5064119;28;20079;-80
2022/09/04 08:24:42;;;;;;;7.65;4.22;;;;;;;16.93;67.33;99160.94;5088428;28;20024;-80
2022/09/04 08:27:35;;;;;;;4.38;3.35;;;;;;;17.12;67.06;99156.50;5073765;28;20033;-80
2022/09/04 08:30:08;;;;;;;5.07;3.88;;;;;;;17.09;66.86;99165.97;5059316;28;20429;-80
2022/09/04 08:33:04;;;;;;;4.25;3.45;;;;;;;17.19;66.00;99165.84;5063694;28;20040;-80
2022/09/04 08:35:59;;;;;;;6.70;3.47;;;;;;;17.49;65.00;99164.78;5069485;28;20048;-80
2022/09/04 08:38:44;;;;;;;5.15;3.85;;;;;;;17.56;66.88;99164.47;5071130;28;20085;-79
2022/09/04 08:41:31;;;;;;;7.03;3.43;;;;;;;17.70;66.48;99160.81;5054781;28;20123;-81
2022/09/04 08:44:31;;;;;;;9.45;3.38;;;;;;;17.94;64.10;99163.50;5068806;28;20034;-79
2022/09/04 08:47:18;;;;;;;3.90;3.03;;;;;;;18.13;63.06;99168.94;5076177;28;20483;-79
2022/09/04 08:49:59;;;;;;;4.43;4.03;;;;;;;18.00;64.57;99175.06;5070984;28;20041;-80
2022/09/04 08:52:30;;;;;;;4.53;3.15;;;;;;;17.90;66.90;99178.66;5067506;28;20097;-80
2022/09/04 08:54:59;;;;;;;20.05;4.47;;;;;;;18.16;66.73;99179.16;5064297;28;20035;-80
2022/09/04 08:57:47;;;;;;;12.30;3.58;;;;;;;18.40;66.54;99183.44;5064716;28;20025;-80
2022/09/04 09:00:21;;;;;;;7.80;3.25;;;;;;;18.76;65.03;99175.66;5065659;28;20111;-80
2022/09/04 09:03:11;;;;;;;2.90;2.63;;;;;;;18.47;66.55;99172.31;5063275;28;20083;-80
2022/09/04 09:05:55;;;;;;;3.13;2.78;;;;;;;18.68;65.37;99176.31;5058517;28;20120;-80
2022/09/04 09:08:55;;;;;;;4.18;3.30;;;;;;;18.61;66.21;99179.38;5065737;28;20702;-80
2022/09/04 09:11:20;;;;;;;8.38;3.35;;;;;;;18.92;65.23;99178.91;5083651;28;20020;-80
2022/09/04 09:14:13;;;;;;;11.82;4.22;;;;;;;19.10;64.37;99178.91;5067074;28;20390;-80
2022/09/04 09:17:01;;;;;;;4.20;3.20;;;;;;;18.90;66.17;99173.00;5065263;28;20028;-80
2022/09/04 09:19:36;;;;;;;268.95;27.88;;;;;;;19.35;64.75;99178.50;5061845;28;20028;-80
2022/09/04 09:22:09;;;;;;;25.50;5.72;;;;;;;19.24;64.75;99163.50;5076089;28;20508;-80
2022/09/04 09:24:58;;;;;;;204.63;20.08;;;;;;;19.35;64.82;99164.19;5058360;28;20128;-83
2022/09/04 09:28:00;;;;;;;32.30;5.25;;;;;;;19.52;65.08;99183.38;5064578;28;20025;-81
2022/09/04 09:30:51;;;;;;;17.05;4.63;;;;;;;19.69;63.80;99159.19;5061621;28;20108;-81
2022/09/04 09:34:00;;;;;;;3.47;3.20;;;;;;;19.36;65.00;99177.41;5068476;28;20526;-81
2022/09/04 09:37:05;;;;;;;3.88;3.15;;;;;;;19.55;65.16;99168.44;5059927;28;20425;-81
2022/09/04 09:39:36;;;;;;;3.40;3.10;;;;;;;20.19;64.10;99169.03;5060982;28;20040;-81
2022/09/04 09:42:25;;;;;;;4.80;2.90;;;;;;;20.41;63.17;99164.78;5072689;28;20099;-82
2022/09/04 09:45:18;;;;;;;3.78;3.03;;;;;;;20.27;63.88;99164.81;5077434;28;20116;-81
2022/09/04 09:48:04;;;;;;;4.45;3.65;;;;;;;20.53;63.26;99167.78;5069338;28;20039;-81
2022/09/04 09:50:48;;;;;;;;;;;;;;;20.55;63.11;99171.78;5065622;28;20048;-80
2022/09/04 09:54:12;;;;;;;30.65;7.18;;;;;;;20.78;62.42;99167.19;5061243;28;19913;-81
2022/09/04 09:56:55;;;;;;;8.02;4.18;;;;;;;20.89;62.49;99168.56;5057507;28;20119;-80
2022/09/04 09:59:30;;;;;;;5.80;3.45;;;;;;;20.43;63.52;99160.69;5059385;28;20025;-81
2022/09/04 10:02:20;;;;;;;4.28;3.67;;;;;;;20.70;62.79;99157.91;5060287;28;20518;-81
2022/09/04 10:05:06;;;;;;;6.18;3.80;;;;;;;20.91;64.00;99153.59;5068240;28;20028;-80
2022/09/04 10:07:46;;;;;;;6.70;3.57;;;;;;;21.19;62.10;99148.03;5042494;28;20040;-80
2022/09/04 10:10:30;;;;;;;4.80;2.90;;;;;;;21.26;62.09;99148.41;5060565;28;20480;-80
2022/09/04 10:13:26;;;;;;;4.70;3.40;;;;;;;21.32;61.11;99141.72;5060021;28;20028;-81
2022/09/04 10:16:01;;;;;;;5.03;2.85;;;;;;;21.71;60.91;99143.69;5066757;28;20450;-80
2022/09/04 10:18:58;;;;;;;3.45;2.78;;;;;;;21.69;60.76;99140.50;5075825;28;20052;-80
2022/09/04 10:21:35;;;;;;;5.32;3.35;;;;;;;21.40;60.75;99154.56;5058325;28;20025;-80
2022/09/04 10:24:21;;;;;;;6.55;2.80;;;;;;;22.13;60.09;99141.13;5065867;28;20028;-80
2022/09/04 10:27:05;;;;;;;;;;;;;;;22.00;59.96;99141.25;5064262;28;20036;-79
2022/09/04 10:30:01;;;;;;;5.32;3.00;;;;;;;21.69;60.29;99149.41;5060493;28;19913;-79
2022/09/04 10:32:26;;;;;;;2.80;2.60;;;;;;;21.91;60.18;99148.59;5057335;28;20109;-79
2022/09/04 10:35:14;;;;;;;6.55;3.38;;;;;;;22.29;59.64;99147.72;5052532;28;20036;-80
2022/09/04 10:37:58;;;;;;;4.47;3.53;;;;;;;21.78;59.71;99120.38;5057262;28;20380;-80
2022/09/04 10:40:44;;;;;;;3.78;3.47;;;;;;;21.55;60.81;99125.09;5063826;28;20503;-79
2022/09/04 10:43:41;;;;;;;6.07;3.38;;;;;;;22.41;59.34;99129.97;5064950;28;20102;-79
2022/09/04 10:46:53;;;;;;;3.40;3.10;;;;;;;22.23;59.72;99137.31;5062705;28;20492;-80
2022/09/04 10:49:36;;;;;;;4.55;2.70;;;;;;;22.23;59.10;99124.53;5022220;28;20040;-80
2022/09/04 10:52:33;;;;;;;3.15;2.85;;;;;;;22.16;59.12;99123.38;5066895;28;20029;-80
2022/09/04 10:55:28;;;;;;;2.88;2.67;;;;;;;23.22;57.37;99126.25;5063892;28;20426;-80
2022/09/04 10:57:53;;;;;;;3.70;2.83;;;;;;;23.52;55.82;99122.53;5070790;28;20527;-81
2022/09/04 11:00:20;;;;;;;2.65;2.42;;;;;;;23.41;55.85;99104.94;5067373;28;20028;-81
2022/09/04 11:03:24;;;;;;;2.80;2.60;;;;;;;23.97;55.11;99128.22;5038248;28;20033;-81
2022/09/04 11:05:52;;;;;;;2.53;2.33;;;;;;;24.13;54.45;99126.56;4989602;28;20034;-81
2022/09/04 11:08:54;;;;;;;4.53;2.55;;;;;;;24.06;54.76;99134.47;5053459;28;20036;-81
2022/09/04 11:11:26;;;;;;;2.58;2.38;;;;;;;23.96;54.72;99123.13;5061745;28;20029;-81
2022/09/04 11:14:27;;;;;;;2.45;2.25;;;;;;;23.88;54.71;99129.41;5065039;28;20489;-81
2022/09/04 11:17:20;;;;;;;2.72;2.28;;;;;;;23.57;55.02;99124.25;5025700;28;20544;-81
2022/09/04 11:20:11;;;;;;;2.90;2.28;;;;;;;24.21;54.62;99127.63;5059141;28;21625;-81
2022/09/04 11:22:50;;;;;;;3.45;2.00;;;;;;;24.24;53.14;99111.44;5055711;28;20159;-81
2022/09/04 11:25:31;;;;;;;4.75;2.33;;;;;;;24.46;52.87;99108.34;5062155;28;20060;-81
2022/09/04 11:28:12;;;;;;;2.28;2.15;;;;;;;24.21;52.69;99111.28;5055088;28;20037;-80
2022/09/04 11:31:16;;;;;;;2.00;1.90;;;;;;;24.96;52.56;99113.75;5049205;28;20025;-81
2022/09/04 11:34:03;;;;;;;2.33;1.90;;;;;;;24.99;52.06;99115.78;5041626;28;20959;-80
2022/09/04 11:36:52;;;;;;;1.83;1.73;;;;;;;24.90;51.60;99108.81;5065421;28;20059;-81
2022/09/04 11:39:24;;;;;;;2.63;1.80;;;;;;;25.01;52.35;99108.03;5074811;28;20119;-81
2022/09/04 11:42:11;;;;;;;2.42;1.85;;;;;;;25.36;51.32;99113.94;5059798;28;20500;-81
2022/09/04 11:44:52;;;;;;;2.00;1.90;;;;;;;25.59;51.00;99123.38;5064116;28;20451;-81
2022/09/04 11:47:29;;;;;;;2.17;2.00;;;;;;;25.55;51.02;99106.03;5069631;28;20476;-80
2022/09/04 11:50:18;;;;;;;2.78;2.33;;;;;;;25.74;50.38;99113.69;5064733;28;20382;-81
2022/09/04 11:52:45;;;;;;;1.85;1.75;;;;;;;25.90;50.55;99112.66;5065977;28;20081;-81
2022/09/04 11:55:28;;;;;;;2.65;1.83;;;;;;;25.88;50.28;99105.94;5068200;28;20017;-80
2022/09/04 11:58:08;;;;;;;2.35;2.15;;;;;;;26.05;49.55;99108.44;5072124;28;20036;-81
2022/09/04 12:00:58;;;;;;;1.73;1.63;;;;;;;26.20;49.41;99115.16;5076440;28;20051;-81
2022/09/04 12:03:35;;;;;;;1.92;1.83;;;;;;;26.01;49.69;99110.25;5042397;28;20494;-81
2022/09/04 12:06:06;;;;;;;2.17;2.05;;;;;;;25.94;49.73;99115.50;5069566;28;20024;-81
2022/09/04 12:08:53;;;;;;;2.38;1.77;;;;;;;26.02;49.78;99104.44;5085376;28;20031;-81
2022/09/04 12:11:22;;;;;;;2.00;1.77;;;;;;;25.91;49.74;99106.03;5064306;28;20079;-80
2022/09/04 12:14:01;;;;;;;1.98;1.85;;;;;;;26.03;49.49;99099.78;5071617;28;20028;-80
2022/09/04 12:17:14;;;;;;;2.00;1.75;;;;;;;25.79;49.42;99100.59;5062381;28;20420;-80
2022/09/04 12:19:57;;;;;;;3.15;1.63;;;;;;;25.62;49.27;99110.94;5006403;28;20026;-80
2022/09/04 12:22:38;;;;;;;5.70;2.17;;;;;;;25.81;49.52;99113.91;5062710;28;20048;-81
2022/09/04 12:25:48;;;;;;;4.55;2.38;;;;;;;25.95;49.42;99115.16;5064433;28;20024;-81
2022/09/04 12:28:20;;;;;;;2.53;2.10;;;;;;;26.14;49.16;99098.19;5059014;28;20138;-81
2022/09/04 12:31:00;;;;;;;2.17;1.90;;;;;;;26.16;49.01;99095.09;5064197;28;20053;-81
2022/09/04 12:33:36;;;;;;;2.28;2.08;;;;;;;26.35;48.30;99089.81;5066851;28;20484;-81
2022/09/04 12:36:19;;;;;;;2.95;1.95;;;;;;;26.35;47.90;99092.56;5067218;28;20052;-81
2022/09/04 12:39:01;;;;;;;2.25;2.05;;;;;;;26.08;47.39;99094.03;5062989;28;20025;-80
2022/09/04 12:41:49;;;;;;;2.20;1.75;;;;;;;26.11;47.71;99106.28;5080987;28;20043;-80
2022/09/04 12:44:43;;;;;;;2.53;2.10;;;;;;;26.88;46.60;99099.59;5069941;28;20036;-80
2022/09/04 12:47:40;;;;;;;4.65;1.77;;;;;;;27.08;46.83;99102.13;5063660;28;20033;-80
2022/09/04 12:50:15;;;;;;;2.17;2.00;;;;;;;26.70;46.34;99097.13;5036814;28;20036;-80
2022/09/04 12:53:08;;;;;;;1.67;1.58;;;;;;;26.97;46.82;99087.34;5078687;28;20030;-80